createdAt,value
2018-03-26T00:02:25.241Z,5.93
2018-03-26T00:04:52.267Z,6.13
2018-03-26T00:07:19.276Z,6.20
2018-03-26T00:09:46.254Z,6.17
2018-03-26T00:12:14.059Z,6.40
2018-03-26T00:14:41.060Z,6.30
2018-03-26T00:17:08.552Z,5.50
2018-03-26T00:19:35.544Z,6.43
2018-03-26T00:22:03.465Z,6.50
2018-03-26T00:24:30.461Z,6.73
2018-03-26T00:26:57.461Z,6.70
2018-03-26T00:29:24.489Z,6.20
2018-03-26T00:31:51.500Z,6.27
2018-03-26T00:34:18.500Z,7.10
2018-03-26T00:36:45.493Z,7.17
2018-03-26T00:39:12.489Z,8.80
2018-03-26T00:41:39.514Z,8.50
2018-03-26T00:44:07.273Z,8.33
2018-03-26T00:46:34.285Z,9.23
2018-03-26T00:49:01.273Z,8.23
2018-03-26T00:51:29.027Z,8.97
2018-03-26T00:53:56.032Z,10.40
2018-03-26T00:56:23.057Z,9.97
2018-03-26T00:58:50.078Z,10.63
2018-03-26T01:01:17.901Z,10.20
2018-03-26T01:03:44.909Z,9.67
2018-03-26T01:06:11.906Z,10.43
2018-03-26T01:08:40.408Z,9.30
2018-03-26T01:11:07.450Z,9.30
2018-03-26T01:13:35.977Z,9.13
2018-03-26T01:16:02.977Z,8.07
2018-03-26T01:18:29.977Z,8.90
2018-03-26T01:20:57.010Z,8.60
2018-03-26T01:23:24.184Z,8.17
2018-03-26T01:25:51.193Z,7.90
2018-03-26T01:28:18.195Z,8.30
2018-03-26T01:30:45.189Z,10.23
2018-03-26T01:33:12.400Z,8.43
2018-03-26T01:35:39.389Z,7.97
2018-03-26T01:38:06.382Z,11.00
2018-03-26T01:40:33.378Z,9.47
2018-03-26T01:43:00.537Z,8.40
2018-03-26T01:45:27.532Z,8.60
2018-03-26T01:47:54.532Z,7.70
2018-03-26T01:50:21.532Z,8.50
2018-03-26T01:52:48.530Z,8.37
2018-03-26T01:55:15.545Z,8.47
2018-03-26T01:57:42.545Z,8.07
2018-03-26T02:00:09.550Z,10.20
2018-03-26T02:02:36.724Z,7.70
2018-03-26T02:05:03.731Z,8.60
2018-03-26T02:07:32.227Z,8.57
2018-03-26T02:09:59.243Z,7.67
2018-03-26T02:12:26.333Z,7.93
2018-03-26T02:14:53.322Z,8.43
2018-03-26T02:17:20.329Z,8.20
2018-03-26T02:19:47.335Z,7.47
2018-03-26T02:22:14.528Z,7.73
2018-03-26T02:24:41.536Z,7.07
2018-03-26T02:27:08.540Z,7.47
2018-03-26T02:29:35.528Z,7.47
2018-03-26T02:32:02.727Z,8.37
2018-03-26T02:34:29.732Z,6.70
2018-03-26T02:36:56.742Z,6.90
2018-03-26T02:39:23.766Z,7.20
2018-03-26T02:41:50.754Z,8.10
2018-03-26T02:44:17.761Z,7.30
2018-03-26T02:46:44.752Z,7.63
2018-03-26T02:49:11.762Z,6.87
2018-03-26T02:51:38.753Z,7.00
2018-03-26T02:54:05.764Z,7.40
2018-03-26T02:56:32.818Z,6.67
2018-03-26T02:58:59.824Z,7.47
2018-03-26T03:01:27.087Z,6.67
2018-03-26T03:03:54.093Z,6.87
2018-03-26T03:06:21.097Z,6.80
2018-03-26T03:08:48.081Z,7.00
2018-03-26T03:11:15.077Z,7.97
2018-03-26T03:13:42.145Z,7.07
2018-03-26T03:16:09.387Z,7.20
2018-03-26T03:18:36.375Z,7.03
2018-03-26T03:21:03.462Z,6.37
2018-03-26T03:23:30.526Z,6.73
2018-03-26T03:25:57.548Z,7.00
2018-03-26T03:28:24.538Z,6.77
2018-03-26T03:30:51.534Z,6.50
2018-03-26T03:33:19.375Z,6.23
2018-03-26T03:35:46.394Z,5.90
2018-03-26T03:38:13.373Z,6.07
2018-03-26T03:40:40.374Z,6.57
2018-03-26T03:43:07.544Z,6.67
2018-03-26T03:45:34.532Z,7.00
2018-03-26T03:48:01.529Z,7.43
2018-03-26T03:50:28.523Z,6.50
2018-03-26T03:52:56.330Z,6.80
2018-03-26T03:55:23.329Z,10.20
2018-03-26T03:57:50.315Z,6.47
2018-03-26T04:00:17.325Z,6.73
2018-03-26T04:02:45.138Z,6.97
2018-03-26T04:05:12.132Z,8.83
2018-03-26T04:07:39.148Z,6.30
2018-03-26T04:10:06.155Z,7.40
2018-03-26T04:12:33.318Z,6.60
2018-03-26T04:15:00.364Z,6.70
2018-03-26T04:17:27.368Z,6.33
2018-03-26T04:19:55.188Z,7.70
2018-03-26T04:22:22.322Z,6.83
2018-03-26T04:24:49.322Z,9.80
2018-03-26T04:27:16.306Z,6.10
2018-03-26T04:29:43.297Z,6.47
2018-03-26T04:32:10.506Z,6.17
2018-03-26T04:34:37.507Z,10.43
2018-03-26T04:37:04.499Z,7.13
2018-03-26T04:39:31.493Z,7.40
2018-03-26T04:41:58.504Z,9.40
2018-03-26T04:44:25.541Z,10.10
2018-03-26T04:46:52.534Z,7.37
2018-03-26T04:49:19.532Z,12.83
2018-03-26T04:51:46.525Z,9.73
2018-03-26T04:54:13.520Z,9.30
2018-03-26T04:56:40.533Z,8.80
2018-03-26T04:59:07.543Z,8.90
2018-03-26T05:01:34.576Z,7.07
2018-03-26T05:04:01.573Z,7.80
2018-03-26T05:06:28.563Z,8.57
2018-03-26T05:08:55.581Z,7.30
2018-03-26T05:11:22.590Z,6.80
2018-03-26T05:13:49.720Z,6.90
2018-03-26T05:16:16.719Z,7.67
2018-03-26T05:18:45.215Z,6.83
2018-03-26T05:21:12.234Z,8.83
2018-03-26T05:23:39.349Z,9.40
2018-03-26T05:26:06.346Z,10.47
2018-03-26T05:28:33.343Z,7.67
2018-03-26T05:31:00.362Z,9.57
2018-03-26T05:33:27.529Z,9.00
2018-03-26T05:35:54.522Z,9.53
2018-03-26T05:38:21.526Z,10.63
2018-03-26T05:40:48.514Z,10.73
2018-03-26T05:43:15.543Z,11.73
2018-03-26T05:45:42.532Z,10.90
2018-03-26T05:48:09.542Z,10.37
2018-03-26T05:50:36.557Z,8.73
2018-03-26T05:53:03.708Z,11.73
2018-03-26T05:55:30.710Z,8.63
2018-03-26T05:57:57.713Z,9.63
2018-03-26T06:00:24.731Z,10.20
2018-03-26T06:02:52.511Z,9.53
2018-03-26T06:05:19.505Z,10.27
2018-03-26T06:07:46.549Z,10.43
2018-03-26T06:10:13.500Z,9.40
2018-03-26T06:12:40.700Z,11.77
2018-03-26T06:15:07.696Z,12.73
2018-03-26T06:17:34.803Z,10.43
2018-03-26T06:20:01.807Z,9.23
2018-03-26T06:22:28.907Z,23.43
2018-03-26T06:24:55.905Z,10.20
2018-03-26T06:27:22.899Z,12.77
2018-03-26T06:29:49.922Z,10.93
2018-03-26T06:32:17.502Z,12.03
2018-03-26T06:34:44.509Z,12.13
2018-03-26T06:37:11.521Z,10.73
2018-03-26T06:39:38.547Z,11.10
2018-03-26T06:42:05.715Z,13.03
2018-03-26T06:44:32.729Z,11.60
2018-03-26T06:46:59.734Z,9.27
2018-03-26T06:49:27.539Z,13.00
2018-03-26T06:51:54.741Z,15.70
2018-03-26T06:54:21.741Z,9.53
2018-03-26T06:56:48.833Z,13.60
2018-03-26T06:59:15.785Z,12.43
2018-03-26T07:01:44.298Z,24.70
2018-03-26T07:04:11.319Z,26.03
2018-03-26T07:06:38.329Z,27.37
2018-03-26T07:09:05.351Z,25.13
2018-03-26T07:11:32.347Z,21.10
2018-03-26T07:13:59.352Z,15.83
2018-03-26T07:16:26.394Z,28.63
2018-03-26T07:18:53.462Z,19.97
2018-03-26T07:21:20.416Z,23.27
2018-03-26T07:23:47.542Z,23.30
2018-03-26T07:26:14.564Z,40.43
2018-03-26T07:28:41.553Z,27.47
2018-03-26T07:31:08.685Z,19.07
2018-03-26T07:33:35.740Z,37.43
2018-03-26T07:36:02.738Z,23.23
2018-03-26T07:38:30.503Z,19.27
2018-03-26T07:40:58.273Z,22.53
2018-03-26T07:43:25.401Z,28.70
2018-03-26T07:45:53.198Z,18.60
2018-03-26T07:48:20.224Z,21.30
2018-03-26T07:50:48.001Z,19.40
2018-03-26T07:53:15.801Z,21.40
2018-03-26T07:55:42.810Z,21.23
2018-03-26T07:58:09.799Z,26.13
2018-03-26T08:00:36.851Z,22.63
2018-03-26T08:03:04.612Z,19.73
2018-03-26T08:05:31.614Z,23.43
2018-03-26T08:07:58.634Z,18.70
2018-03-26T08:10:25.672Z,15.27
2018-03-26T08:12:52.791Z,22.27
2018-03-26T08:15:19.804Z,18.53
2018-03-26T08:17:46.820Z,21.33
2018-03-26T08:20:13.824Z,22.50
2018-03-26T08:22:40.998Z,21.43
2018-03-26T08:25:07.995Z,16.50
2018-03-26T08:27:35.068Z,22.30
2018-03-26T08:30:02.122Z,18.07
2018-03-26T08:32:29.192Z,16.00
2018-03-26T08:34:56.238Z,22.90
2018-03-26T08:37:23.237Z,19.80
2018-03-26T08:39:50.246Z,24.47
2018-03-26T08:42:17.438Z,17.80
2018-03-26T08:44:44.385Z,14.87
2018-03-26T08:47:12.622Z,17.30
2018-03-26T08:49:39.623Z,18.10
2018-03-26T08:52:07.410Z,19.93
2018-03-26T08:54:34.420Z,17.17
2018-03-26T08:57:01.425Z,14.30
2018-03-26T08:59:28.425Z,14.80
2018-03-26T09:01:55.638Z,15.70
2018-03-26T09:04:22.638Z,13.23
2018-03-26T09:06:49.666Z,15.13
2018-03-26T09:09:16.667Z,15.67
2018-03-26T09:11:43.691Z,14.10
2018-03-26T09:14:10.702Z,13.70
2018-03-26T09:16:38.901Z,14.60
2018-03-26T09:19:05.917Z,16.67
2018-03-26T09:21:33.002Z,12.20
2018-03-26T09:23:59.998Z,14.03
2018-03-26T09:26:27.135Z,16.93
2018-03-26T09:28:54.140Z,14.33
2018-03-26T09:31:21.154Z,15.10
2018-03-26T09:33:48.246Z,13.67
2018-03-26T09:36:15.234Z,12.80
2018-03-26T09:38:42.276Z,17.23
2018-03-26T09:41:09.443Z,10.83
2018-03-26T09:43:37.249Z,13.20
2018-03-26T09:46:04.246Z,16.67
2018-03-26T09:48:31.265Z,12.97
2018-03-26T09:50:58.530Z,15.23
2018-03-26T09:53:25.663Z,13.10
2018-03-26T09:55:52.659Z,9.87
2018-03-26T09:58:19.726Z,11.80
2018-03-26T10:00:46.736Z,10.03
2018-03-26T10:03:15.272Z,10.27
2018-03-26T10:05:43.136Z,13.73
2018-03-26T10:08:10.175Z,12.00
2018-03-26T10:10:37.160Z,9.60
2018-03-26T10:13:04.263Z,11.63
2018-03-26T10:15:31.265Z,10.57
2018-03-26T10:17:58.265Z,11.63
2018-03-26T10:20:25.275Z,9.00
2018-03-26T10:22:52.467Z,10.67
2018-03-26T10:25:19.468Z,10.20
2018-03-26T10:27:46.555Z,10.50
2018-03-26T10:30:14.488Z,10.27
2018-03-26T10:32:41.685Z,9.17
2018-03-26T10:35:08.685Z,9.53
2018-03-26T10:37:35.712Z,9.93
2018-03-26T10:40:02.710Z,10.87
2018-03-26T10:42:29.873Z,10.70
2018-03-26T10:44:56.875Z,9.20
2018-03-26T10:47:25.380Z,10.47
2018-03-26T10:49:52.364Z,9.20
2018-03-26T10:52:19.523Z,10.00
2018-03-26T10:54:46.520Z,10.50
2018-03-26T10:57:13.525Z,9.80
2018-03-26T10:59:40.567Z,9.77
2018-03-26T11:02:07.740Z,8.60
2018-03-26T11:04:34.736Z,9.73
2018-03-26T11:07:01.734Z,9.60
2018-03-26T11:09:28.736Z,10.10
2018-03-26T11:11:55.884Z,9.70
2018-03-26T11:14:22.894Z,9.50
2018-03-26T11:16:49.888Z,8.43
2018-03-26T11:19:16.913Z,8.93
2018-03-26T11:21:43.910Z,10.40
2018-03-26T11:24:10.931Z,8.70
2018-03-26T11:26:37.919Z,8.97
2018-03-26T11:29:04.926Z,13.17
2018-03-26T11:31:31.913Z,12.40
2018-03-26T11:33:59.693Z,17.63
2018-03-26T11:36:26.704Z,18.33
2018-03-26T11:38:53.700Z,22.87
2018-03-26T11:41:20.698Z,14.50
2018-03-26T11:43:47.926Z,15.53
2018-03-26T11:46:14.936Z,10.73
2018-03-26T11:48:41.940Z,12.07
2018-03-26T11:51:08.933Z,9.83
2018-03-26T11:53:36.097Z,9.90
2018-03-26T11:56:03.115Z,11.23
2018-03-26T11:58:30.109Z,7.90
2018-03-26T12:00:57.139Z,16.33
2018-03-26T12:03:24.303Z,13.50
2018-03-26T12:05:51.286Z,15.07
2018-03-26T12:08:18.286Z,21.33
2018-03-26T12:10:45.281Z,17.40
2018-03-26T12:13:12.485Z,20.30
2018-03-26T12:15:39.501Z,9.80
2018-03-26T12:18:06.515Z,13.93
2018-03-26T12:20:33.498Z,14.17
2018-03-26T12:23:00.704Z,13.00
2018-03-26T12:25:27.702Z,13.83
2018-03-26T12:27:54.721Z,8.23
2018-03-26T12:30:21.746Z,9.97
2018-03-26T12:32:48.764Z,9.33
2018-03-26T12:35:15.764Z,9.57
2018-03-26T12:37:43.572Z,8.30
2018-03-26T12:40:10.562Z,13.63
2018-03-26T12:42:37.692Z,8.90
2018-03-26T12:45:04.682Z,9.40
2018-03-26T12:47:31.688Z,8.40
2018-03-26T12:49:58.683Z,10.20
2018-03-26T12:52:26.469Z,8.53
2018-03-26T12:54:53.471Z,9.90
2018-03-26T12:57:20.471Z,11.93
2018-03-26T12:59:47.481Z,9.53
2018-03-26T13:02:16.093Z,7.73
2018-03-26T13:04:43.085Z,8.20
2018-03-26T13:07:11.596Z,8.33
2018-03-26T13:09:39.368Z,8.20
2018-03-26T13:12:07.152Z,7.83
2018-03-26T13:14:34.182Z,7.30
2018-03-26T13:17:01.166Z,8.17
2018-03-26T13:19:28.207Z,7.93
2018-03-26T13:21:55.352Z,7.83
2018-03-26T13:24:22.345Z,8.30
2018-03-26T13:26:49.357Z,6.83
2018-03-26T13:29:16.365Z,7.77
2018-03-26T13:31:44.143Z,6.63
2018-03-26T13:34:11.140Z,7.30
2018-03-26T13:36:38.128Z,7.80
2018-03-26T13:39:05.149Z,6.97
2018-03-26T13:41:32.922Z,6.77
2018-03-26T13:43:59.913Z,7.57
2018-03-26T13:46:26.915Z,7.83
2018-03-26T13:48:54.688Z,6.70
2018-03-26T13:51:21.682Z,6.57
2018-03-26T13:53:48.996Z,7.17
2018-03-26T13:56:15.993Z,9.10
2018-03-26T13:58:42.999Z,7.37
2018-03-26T14:01:10.021Z,7.17
2018-03-26T14:03:37.817Z,6.30
2018-03-26T14:06:04.863Z,7.23
2018-03-26T14:08:31.846Z,7.53
2018-03-26T14:10:58.852Z,7.53
2018-03-26T14:13:26.062Z,7.70
2018-03-26T14:15:53.062Z,7.27
2018-03-26T14:18:20.041Z,6.93
2018-03-26T14:20:47.041Z,7.23
2018-03-26T14:23:14.208Z,6.93
2018-03-26T14:25:41.255Z,8.13
2018-03-26T14:28:08.245Z,9.60
2018-03-26T14:30:36.020Z,8.97
2018-03-26T14:33:03.825Z,7.83
2018-03-26T14:35:30.813Z,8.37
2018-03-26T14:37:57.811Z,8.13
2018-03-26T14:40:24.809Z,7.73
2018-03-26T14:42:51.809Z,7.63
2018-03-26T14:45:18.810Z,7.97
2018-03-26T14:47:47.302Z,7.50
2018-03-26T14:50:14.316Z,7.43
2018-03-26T14:52:41.360Z,6.90
2018-03-26T14:55:08.351Z,8.10
2018-03-26T14:57:36.138Z,7.73
2018-03-26T15:00:03.176Z,7.13
2018-03-26T15:02:30.241Z,7.90
2018-03-26T15:04:57.229Z,7.60
2018-03-26T15:07:24.217Z,7.50
2018-03-26T15:09:51.209Z,7.90
2018-03-26T15:12:18.218Z,8.10
2018-03-26T15:14:45.223Z,7.53
2018-03-26T15:17:12.222Z,7.53
2018-03-26T15:19:39.253Z,7.40
2018-03-26T15:22:06.424Z,7.57
2018-03-26T15:24:33.422Z,8.23
2018-03-26T15:27:00.415Z,7.87
2018-03-26T15:29:27.403Z,6.73
2018-03-26T15:31:54.409Z,6.93
2018-03-26T15:34:21.416Z,6.77
2018-03-26T15:36:48.459Z,7.67
2018-03-26T15:39:15.447Z,7.80
2018-03-26T15:41:42.458Z,7.00
2018-03-26T15:44:10.232Z,8.53
2018-03-26T15:46:37.240Z,6.60
2018-03-26T15:49:04.257Z,7.83
2018-03-26T15:51:31.234Z,7.40
2018-03-26T15:53:58.257Z,7.10
2018-03-26T15:56:25.290Z,8.50
2018-03-26T15:58:52.288Z,7.43
2018-03-26T16:01:19.955Z,7.03
2018-03-26T16:03:47.057Z,7.00
2018-03-26T16:06:14.058Z,7.50
2018-03-26T16:08:41.037Z,6.37
2018-03-26T16:11:08.047Z,7.07
2018-03-26T16:13:35.854Z,6.47
2018-03-26T16:16:02.879Z,7.50
2018-03-26T16:18:30.095Z,7.63
2018-03-26T16:20:57.091Z,8.83
2018-03-26T16:23:24.259Z,10.37
2018-03-26T16:25:51.244Z,7.60
2018-03-26T16:28:18.257Z,9.77
2018-03-26T16:30:45.277Z,7.50
2018-03-26T16:33:12.451Z,9.70
2018-03-26T16:35:39.481Z,12.83
2018-03-26T16:38:06.483Z,7.03
2018-03-26T16:40:33.475Z,7.87
2018-03-26T16:43:00.630Z,7.77
2018-03-26T16:45:27.675Z,8.73
2018-03-26T16:47:54.685Z,7.47
2018-03-26T16:50:21.669Z,16.33
2018-03-26T16:52:48.825Z,8.90
2018-03-26T16:55:15.946Z,7.87
2018-03-26T16:57:43.955Z,9.53
2018-03-26T17:00:11.819Z,8.23
2018-03-26T17:02:38.947Z,11.07
2018-03-26T17:05:06.996Z,8.37
2018-03-26T17:07:34.843Z,10.47
2018-03-26T17:10:01.933Z,7.90
2018-03-26T17:12:29.152Z,8.50
2018-03-26T17:14:56.255Z,6.97
2018-03-26T17:17:24.249Z,9.73
2018-03-26T17:19:51.318Z,8.10
2018-03-26T17:22:18.577Z,7.20
2018-03-26T17:24:45.646Z,6.90
2018-03-26T17:27:14.482Z,9.23
2018-03-26T17:29:41.614Z,7.50
2018-03-26T17:32:10.784Z,10.57
2018-03-26T17:34:38.473Z,10.23
2018-03-26T17:37:05.505Z,11.33
2018-03-26T17:39:32.546Z,13.23
2018-03-26T17:41:59.601Z,18.97
2018-03-26T17:44:26.598Z,12.83
2018-03-26T17:46:53.573Z,17.30
2018-03-26T17:49:20.571Z,12.07
2018-03-26T17:51:47.866Z,17.27
2018-03-26T17:54:15.631Z,15.37
2018-03-26T17:56:42.657Z,15.00
2018-03-26T17:59:09.654Z,10.27
2018-03-26T18:01:36.669Z,9.63
2018-03-26T18:04:04.440Z,10.30
2018-03-26T18:06:31.503Z,12.13
2018-03-26T18:08:58.505Z,10.80
2018-03-26T18:11:27.228Z,9.20
2018-03-26T18:13:54.218Z,15.77
2018-03-26T18:16:21.265Z,10.17
2018-03-26T18:18:48.283Z,8.60
2018-03-26T18:21:15.376Z,12.65
2018-03-26T18:23:42.480Z,18.07
2018-03-26T18:26:09.506Z,13.10
2018-03-26T18:28:36.556Z,10.47
2018-03-26T18:31:03.608Z,9.20
2018-03-26T18:33:30.669Z,12.67
2018-03-26T18:35:57.694Z,9.50
2018-03-26T18:38:24.758Z,12.33
2018-03-26T18:40:51.795Z,9.27
2018-03-26T18:43:18.904Z,9.60
2018-03-26T18:45:45.904Z,8.27
2018-03-26T18:48:12.887Z,10.00
2018-03-26T18:50:39.873Z,8.40
2018-03-26T18:53:07.891Z,11.23
2018-03-26T18:55:34.933Z,9.63
2018-03-26T18:58:02.052Z,10.50
2018-03-26T19:00:29.800Z,7.70
2018-03-26T19:02:56.896Z,10.30
2018-03-26T19:05:25.027Z,7.40
2018-03-26T19:07:52.790Z,11.23
2018-03-26T19:10:20.063Z,9.30
2018-03-26T19:12:47.519Z,7.67
2018-03-26T19:15:14.566Z,8.13
2018-03-26T19:17:41.590Z,8.53
2018-03-26T19:20:09.358Z,8.17
2018-03-26T19:22:37.342Z,8.70
2018-03-26T19:25:04.368Z,8.97
2018-03-26T19:27:31.376Z,10.63
2018-03-26T19:29:58.374Z,8.90
2018-03-26T19:32:27.586Z,8.80
2018-03-26T19:34:54.574Z,9.87
2018-03-26T19:37:21.587Z,7.97
2018-03-26T19:39:48.612Z,8.17
2018-03-26T19:42:16.405Z,7.47
2018-03-26T19:44:43.428Z,8.47
2018-03-26T19:47:10.458Z,8.07
2018-03-26T19:49:38.995Z,10.47
2018-03-26T19:52:06.021Z,7.37
2018-03-26T19:54:33.037Z,7.43
2018-03-26T19:57:00.032Z,8.30
2018-03-26T19:59:27.060Z,10.13
2018-03-26T20:01:54.284Z,9.93
2018-03-26T20:04:21.282Z,9.17
2018-03-26T20:06:48.288Z,9.60
2018-03-26T20:09:15.306Z,10.93
2018-03-26T20:11:42.305Z,9.43
2018-03-26T20:14:09.335Z,10.13
2018-03-26T20:16:36.499Z,9.93
2018-03-26T20:19:03.740Z,9.97
2018-03-26T20:21:30.821Z,9.43
2018-03-26T20:23:57.806Z,12.17
2018-03-26T20:26:24.807Z,9.27
2018-03-26T20:28:51.828Z,13.00
2018-03-26T20:31:19.600Z,12.80
2018-03-26T20:33:46.690Z,19.33
2018-03-26T20:36:13.700Z,11.73
2018-03-26T20:38:40.690Z,9.50
2018-03-26T20:41:08.559Z,10.93
2018-03-26T20:43:35.909Z,8.83
2018-03-26T20:46:03.309Z,11.73
2018-03-26T20:48:30.345Z,9.43
2018-03-26T20:50:57.349Z,10.97
2018-03-26T20:53:24.471Z,11.33
2018-03-26T20:55:51.816Z,9.63
2018-03-26T20:58:18.830Z,13.23
2018-03-26T21:00:45.851Z,10.07
2018-03-26T21:03:13.097Z,9.97
2018-03-26T21:05:40.197Z,9.13
2018-03-26T21:08:07.972Z,9.93
2018-03-26T21:10:34.972Z,10.43
2018-03-26T21:13:02.104Z,10.23
2018-03-26T21:15:29.103Z,9.93
2018-03-26T21:17:56.153Z,10.80
2018-03-26T21:20:23.925Z,10.90
2018-03-26T21:22:51.718Z,10.90
2018-03-26T21:25:18.721Z,9.47
2018-03-26T21:27:45.718Z,9.90
2018-03-26T21:30:13.384Z,10.10
2018-03-26T21:32:40.517Z,11.70
2018-03-26T21:35:08.415Z,9.13
2018-03-26T21:37:35.425Z,8.83
2018-03-26T21:40:02.442Z,9.73
2018-03-26T21:42:29.567Z,9.87
2018-03-26T21:44:56.538Z,9.83
2018-03-26T21:47:23.836Z,10.97
2018-03-26T21:49:50.956Z,10.47
2018-03-26T21:52:18.760Z,12.37
2018-03-26T21:54:45.754Z,9.97
2018-03-26T21:57:12.821Z,9.83
2018-03-26T21:59:39.820Z,11.20
2018-03-26T22:02:06.978Z,10.73
2018-03-26T22:04:33.982Z,10.23
2018-03-26T22:07:00.987Z,9.90
2018-03-26T22:09:28.020Z,12.60
2018-03-26T22:11:55.097Z,10.17
2018-03-26T22:14:22.063Z,10.40
2018-03-26T22:16:49.059Z,9.67
2018-03-26T22:19:16.140Z,10.67
2018-03-26T22:21:43.101Z,9.20
2018-03-26T22:24:10.103Z,11.07
2018-03-26T22:26:37.079Z,9.70
2018-03-26T22:29:04.052Z,9.97
2018-03-26T22:31:31.024Z,8.93
2018-03-26T22:33:58.007Z,11.23
2018-03-26T22:36:25.732Z,12.53
2018-03-26T22:38:52.797Z,10.90
2018-03-26T22:41:19.803Z,11.00
2018-03-26T22:43:46.946Z,10.40
2018-03-26T22:46:13.972Z,9.80
2018-03-26T22:48:40.996Z,11.53
2018-03-26T22:51:08.000Z,9.40
2018-03-26T22:53:35.142Z,10.90
2018-03-26T22:56:02.096Z,10.43
2018-03-26T22:58:29.109Z,10.80
2018-03-26T23:00:56.871Z,10.13
2018-03-26T23:03:23.947Z,11.57
2018-03-26T23:05:50.947Z,10.20
2018-03-26T23:08:17.965Z,11.27
2018-03-26T23:10:44.970Z,10.80
2018-03-26T23:13:12.118Z,12.30
2018-03-26T23:15:39.124Z,11.40
2018-03-26T23:18:06.124Z,9.93
2018-03-26T23:20:33.150Z,11.87
2018-03-26T23:23:00.941Z,9.87
2018-03-26T23:25:27.951Z,9.60
2018-03-26T23:27:54.943Z,9.00
2018-03-26T23:30:21.937Z,9.47
2018-03-26T23:32:49.126Z,9.97
2018-03-26T23:35:16.127Z,9.90
2018-03-26T23:37:43.125Z,9.90
2018-03-26T23:40:10.128Z,9.97
2018-03-26T23:42:37.308Z,10.20
2018-03-26T23:45:04.303Z,11.97
2018-03-26T23:47:31.293Z,9.63
2018-03-26T23:49:58.286Z,9.20
2018-03-26T23:52:25.302Z,10.20
2018-03-26T23:54:52.293Z,9.50
2018-03-26T23:57:19.292Z,8.60
2018-03-26T23:59:46.286Z,9.70
